Aviation Digital Data Service (ADDS)

Output produced by METARs form (2237 UTC 23 March 2019)
found at http://www.aviationweather.gov/metar/data/
 
METAR text: RJSI 231000Z 27007KT 230V290 9999 FEW030 M00/M10 Q1011
Conditions at: RJSI (HANAMAKI AIRPORT, JP) observed 1000 UTC 23 March 2019
Temperature: 0.0°C (32°F)
Dewpoint: -10.0°C (14°F) [RH = 47%]
Pressure (altimeter): 29.85 inches Hg (1011.0 mb)
Winds: from the W (270 degrees) at 8 MPH (7 knots; 3.6 m/s)
Visibility: 6 or more miles (10+ km)
Ceiling: at least 12,000 feet AGL
Clouds: few clouds at 3000 feet AGL
Weather: no significant weather observed at this time

METAR text: RJSI 230900Z 27005KT 230V310 9999 FEW030 01/M10 Q1011
Conditions at: RJSI (HANAMAKI AIRPORT, JP) observed 0900 UTC 23 March 2019
Temperature: 1.0°C (34°F)
Dewpoint: -10.0°C (14°F) [RH = 44%]
Pressure (altimeter): 29.85 inches Hg (1011.0 mb)
Winds: from the W (270 degrees) at 6 MPH (5 knots; 2.6 m/s)
Visibility: 6 or more miles (10+ km)
Ceiling: at least 12,000 feet AGL
Clouds: few clouds at 3000 feet AGL
Weather: no significant weather observed at this time

METAR text: RJSI 230800Z 29009G19KT 260V330 9999 -SHSN FEW020 SCT040 02/M07 Q1011
Conditions at: RJSI (HANAMAKI AIRPORT, JP) observed 0800 UTC 23 March 2019
Temperature: 2.0°C (36°F)
Dewpoint: -7.0°C (19°F) [RH = 51%]
Pressure (altimeter): 29.85 inches Hg (1011.0 mb)
Winds: from the WNW (290 degrees) at 10 MPH (9 knots; 4.6 m/s)
gusting to 22 MPH (19 knots; 9.8 m/s)
Visibility: 6 or more miles (10+ km)
Ceiling: at least 12,000 feet AGL
Clouds: few clouds at 2000 feet AGL
scattered clouds at 4000 feet AGL
Weather: -SHSN  (light snow showers)

METAR text: RJSI 230700Z 26008KT 210V300 9999 -SHSN FEW015 SCT040 04/M05 Q1010
Conditions at: RJSI (HANAMAKI AIRPORT, JP) observed 0700 UTC 23 March 2019
Temperature: 4.0°C (39°F)
Dewpoint: -5.0°C (23°F) [RH = 52%]
Pressure (altimeter): 29.82 inches Hg (1010.0 mb)
Winds: from the W (260 degrees) at 9 MPH (8 knots; 4.1 m/s)
Visibility: 6 or more miles (10+ km)
Ceiling: at least 12,000 feet AGL
Clouds: few clouds at 1500 feet AGL
scattered clouds at 4000 feet AGL
Weather: -SHSN  (light snow showers)

METAR text: RJSI 230600Z 29011G22KT 260V330 9999 -SHSN FEW015 SCT040 05/M04 Q1010
Conditions at: RJSI (HANAMAKI AIRPORT, JP) observed 0600 UTC 23 March 2019
Temperature: 5.0°C (41°F)
Dewpoint: -4.0°C (25°F) [RH = 52%]
Pressure (altimeter): 29.82 inches Hg (1010.0 mb)
Winds: from the WNW (290 degrees) at 13 MPH (11 knots; 5.7 m/s)
gusting to 25 MPH (22 knots; 11.3 m/s)
Visibility: 6 or more miles (10+ km)
Ceiling: at least 12,000 feet AGL
Clouds: few clouds at 1500 feet AGL
scattered clouds at 4000 feet AGL
Weather: -SHSN  (light snow showers)

METAR text: RJSI 230500Z 27007KT 220V340 9999 -SHSN FEW015 SCT040 BKN/// 04/M03 Q1010
Conditions at: RJSI (HANAMAKI AIRPORT, JP) observed 0500 UTC 23 March 2019
Temperature: 4.0°C (39°F)
Dewpoint: -3.0°C (27°F) [RH = 60%]
Pressure (altimeter): 29.82 inches Hg (1010.0 mb)
Winds: from the W (270 degrees) at 8 MPH (7 knots; 3.6 m/s)
Visibility: 6 or more miles (10+ km)
Ceiling: at least 12,000 feet AGL
Clouds: few clouds at 1500 feet AGL
scattered clouds at 4000 feet AGL
Weather: -SHSN  (light snow showers)

METAR text: RJSI 230400Z 28006KT 240V320 9999 -SHSN FEW015 SCT030 BKN040 04/M03 Q1010
Conditions at: RJSI (HANAMAKI AIRPORT, JP) observed 0400 UTC 23 March 2019
Temperature: 4.0°C (39°F)
Dewpoint: -3.0°C (27°F) [RH = 60%]
Pressure (altimeter): 29.82 inches Hg (1010.0 mb)
Winds: from the W (280 degrees) at 7 MPH (6 knots; 3.1 m/s)
Visibility: 6 or more miles (10+ km)
Ceiling: 4000 feet AGL
Clouds: few clouds at 1500 feet AGL
scattered clouds at 3000 feet AGL
broken clouds at 4000 feet AGL
Weather: -SHSN  (light snow showers)

METAR text: RJSI 230300Z 23007KT 190V280 9999 VCSH FEW010 SCT030 BKN050 05/M03 Q1011
Conditions at: RJSI (HANAMAKI AIRPORT, JP) observed 0300 UTC 23 March 2019
Temperature: 5.0°C (41°F)
Dewpoint: -3.0°C (27°F) [RH = 56%]
Pressure (altimeter): 29.85 inches Hg (1011.0 mb)
Winds: from the SW (230 degrees) at 8 MPH (7 knots; 3.6 m/s)
Visibility: 6 or more miles (10+ km)
Ceiling: 5000 feet AGL
Clouds: few clouds at 1000 feet AGL
scattered clouds at 3000 feet AGL
broken clouds at 5000 feet AGL
Weather: VCSH  (showers in vicinity)

METAR text: RJSI 230239Z 25007KT 210V290 4000 -SHSN FEW010 SCT020 BKN040 02/M03 Q1012 RMK 1CU010 3CU020 6CU040 A2990
Conditions at: RJSI (HANAMAKI AIRPORT, JP) observed 0239 UTC 23 March 2019
Temperature: 2.0°C (36°F)
Dewpoint: -3.0°C (27°F) [RH = 69%]
Pressure (altimeter): 29.88 inches Hg (1012.0 mb)
Winds: from the WSW (250 degrees) at 8 MPH (7 knots; 3.6 m/s)
Visibility: 2.49 miles (4.01 km)
Ceiling: 4000 feet AGL
Clouds: few clouds at 1000 feet AGL
scattered clouds at 2000 feet AGL
broken clouds at 4000 feet AGL
Weather: -SHSN  (light snow showers)

METAR text: RJSI 230200Z 23005KT 170V290 9999 -SHSN FEW015 SCT030 BKN040 04/M02 Q1012
Conditions at: RJSI (HANAMAKI AIRPORT, JP) observed 0200 UTC 23 March 2019
Temperature: 4.0°C (39°F)
Dewpoint: -2.0°C (28°F) [RH = 65%]
Pressure (altimeter): 29.88 inches Hg (1012.0 mb)
Winds: from the SW (230 degrees) at 6 MPH (5 knots; 2.6 m/s)
Visibility: 6 or more miles (10+ km)
Ceiling: 4000 feet AGL
Clouds: few clouds at 1500 feet AGL
scattered clouds at 3000 feet AGL
broken clouds at 4000 feet AGL
Weather: -SHSN  (light snow showers)

METAR text: RJSI 230100Z 21011KT 9999 -SHSN FEW020 SCT030 BKN040 02/M04 Q1012
Conditions at: RJSI (HANAMAKI AIRPORT, JP) observed 0100 UTC 23 March 2019
Temperature: 2.0°C (36°F)
Dewpoint: -4.0°C (25°F) [RH = 64%]
Pressure (altimeter): 29.88 inches Hg (1012.0 mb)
Winds: from the SSW (210 degrees) at 13 MPH (11 knots; 5.7 m/s)
Visibility: 6 or more miles (10+ km)
Ceiling: 4000 feet AGL
Clouds: few clouds at 2000 feet AGL
scattered clouds at 3000 feet AGL
broken clouds at 4000 feet AGL
Weather: -SHSN  (light snow showers)

METAR text: RJSI 230000Z 21010KT 9999 FEW030 SCT040 BKN050 02/M05 Q1012
Conditions at: RJSI (HANAMAKI AIRPORT, JP) observed 0000 UTC 23 March 2019
Temperature: 2.0°C (36°F)
Dewpoint: -5.0°C (23°F) [RH = 60%]
Pressure (altimeter): 29.88 inches Hg (1012.0 mb)
Winds: from the SSW (210 degrees) at 12 MPH (10 knots; 5.1 m/s)
Visibility: 6 or more miles (10+ km)
Ceiling: 5000 feet AGL
Clouds: few clouds at 3000 feet AGL
scattered clouds at 4000 feet AGL
broken clouds at 5000 feet AGL
Weather: no significant weather observed at this time

METAR text: RJSI 222300Z 11003KT 070V140 9999 FEW030 SCT040 BKN050 01/M06 Q1012
Conditions at: RJSI (HANAMAKI AIRPORT, JP) observed 2300 UTC 22 March 2019
Temperature: 1.0°C (34°F)
Dewpoint: -6.0°C (21°F) [RH = 59%]
Pressure (altimeter): 29.88 inches Hg (1012.0 mb)
Winds: from the ESE (110 degrees) at 3 MPH (3 knots; 1.5 m/s)
Visibility: 6 or more miles (10+ km)
Ceiling: 5000 feet AGL
Clouds: few clouds at 3000 feet AGL
scattered clouds at 4000 feet AGL
broken clouds at 5000 feet AGL
Weather: no significant weather observed at this time

METAR text: RJSI 222240Z 09003KT 9999 FEW030 SCT040 BKN050 01/M07 Q1012 RMK 1CU030 3CU040 6CU050 A2990
Conditions at: RJSI (HANAMAKI AIRPORT, JP) observed 2240 UTC 22 March 2019
Temperature: 1.0°C (34°F)
Dewpoint: -7.0°C (19°F) [RH = 55%]
Pressure (altimeter): 29.88 inches Hg (1012.0 mb)
Winds: from the E (90 degrees) at 3 MPH (3 knots; 1.5 m/s)
Visibility: 6 or more miles (10+ km)
Ceiling: 5000 feet AGL
Clouds: few clouds at 3000 feet AGL
scattered clouds at 4000 feet AGL
broken clouds at 5000 feet AGL
Weather: no significant weather observed at this time